Saba, Netherlands Antilles
Current Conditions -  °F | °C
As of 11:00 PM on Friday 24 Oct 2014 (Local Time) from TNCM Reporting Station
Broken Clouds Broken Clouds  
Wind Chill: 82°   Ceiling: 1800
Heat Index: 89°   Visibility: 6mi
Dew Point: 75°   Wind: 7mph
Humidity: 79%   Direction: 100°E
Pressure: 29.91"   Gusts: NA
Location:  17.64°N, 63.23°W
Report Text: TNCM 250300Z 10006KT 070V130 9999 BKN018 28/24 Q1013 A2994
Loading
Personal Weather Stations






























Interactive Weather Map
Tropical Storm Tracking
New forecast layout! Learn more

10-Day Weather Forecast

Advertisements
Track Severe Weather on mobile